Time;durP1;ratioP1;P1;durP2;ratioP2;P2;SDS_P1;SDS_P2;PMS_P1;PMS_P2;Temp;Humidity;BMP_temperature;BMP_pressure;BME280_temperature;BME280_humidity;BME280_pressure;Samples;Min_cycle;Max_cycle;Signal;HPM_P1;HPM_P2
2023/04/06 00:01:25;;;;;;;1999.90;999.90;;;;;;;-0.11;100.00;95538.16;5064488;28;20185;-69
2023/04/06 00:03:50;;;;;;;1999.90;999.90;;;;;;;-0.18;100.00;95529.91;5064234;28;20167;-69
2023/04/06 00:06:16;;;;;;;1999.90;999.90;;;;;;;-0.20;100.00;95534.78;5063571;28;20171;-68
2023/04/06 00:08:41;;;;;;;1999.90;999.90;;;;;;;-0.23;100.00;95535.44;5063734;28;20163;-69
2023/04/06 00:11:07;;;;;;;1999.90;999.90;;;;;;;-0.25;100.00;95526.97;5063487;28;20207;-69
2023/04/06 00:13:32;;;;;;;1999.90;999.90;;;;;;;-0.28;100.00;95533.00;5064114;28;20163;-68
2023/04/06 00:15:58;;;;;;;1999.90;999.90;;;;;;;-0.27;100.00;95526.50;5063989;28;20190;-67
2023/04/06 00:18:24;;;;;;;1999.90;999.90;;;;;;;-0.22;100.00;95520.91;5063501;28;20248;-70
2023/04/06 00:20:50;;;;;;;1999.90;999.90;;;;;;;-0.20;100.00;95522.19;5063461;28;20164;-68
2023/04/06 00:23:16;;;;;;;1999.90;999.90;;;;;;;-0.20;100.00;95519.50;5063501;28;20198;-69
2023/04/06 00:25:41;;;;;;;1999.90;999.90;;;;;;;-0.19;100.00;95526.41;5063322;28;20179;-69
2023/04/06 00:28:07;;;;;;;1999.90;999.90;;;;;;;-0.19;100.00;95522.94;5063668;28;20281;-69
2023/04/06 00:30:32;;;;;;;1999.90;999.90;;;;;;;-0.17;100.00;95523.41;5063490;28;20214;-69
2023/04/06 00:32:57;;;;;;;1999.90;999.90;;;;;;;-0.15;100.00;95529.22;5063831;28;20261;-69
2023/04/06 00:35:23;;;;;;;1999.90;999.90;;;;;;;-0.18;100.00;95525.28;5063406;28;20169;-70
2023/04/06 00:37:48;;;;;;;1999.90;999.90;;;;;;;-0.23;100.00;95519.34;5063596;28;20169;-69
2023/04/06 00:40:14;;;;;;;1999.90;999.90;;;;;;;-0.20;100.00;95513.34;5063489;28;20167;-69
2023/04/06 00:42:40;;;;;;;1999.90;999.90;;;;;;;-0.25;100.00;95517.00;5063327;28;20166;-67
2023/04/06 00:45:06;;;;;;;1999.90;999.90;;;;;;;-0.25;100.00;95519.69;5063157;28;20160;-67
2023/04/06 00:47:33;;;;;;;1999.90;999.90;;;;;;;-0.29;100.00;95518.78;5063521;28;20195;-69
2023/04/06 00:49:58;;;;;;;1999.90;999.90;;;;;;;-0.36;100.00;95523.13;5063231;28;20241;-67
2023/04/06 00:52:24;;;;;;;1999.90;999.90;;;;;;;-0.39;100.00;95521.88;5063665;28;20199;-70
2023/04/06 00:54:50;;;;;;;1999.90;999.90;;;;;;;-0.40;100.00;95525.69;5063468;28;20215;-69
2023/04/06 00:57:16;;;;;;;1999.90;999.90;;;;;;;-0.38;100.00;95519.97;5063389;28;20223;-69
2023/04/06 00:59:42;;;;;;;1999.90;999.90;;;;;;;-0.41;100.00;95523.31;5067004;28;20170;-68
2023/04/06 01:02:08;;;;;;;1999.90;999.90;;;;;;;-0.38;100.00;95522.66;5066858;28;20199;-67
2023/04/06 01:04:34;;;;;;;1999.90;999.90;;;;;;;-0.38;100.00;95518.09;5067503;28;20166;-67
2023/04/06 01:07:00;;;;;;;1999.90;999.90;;;;;;;-0.40;100.00;95514.19;5066855;28;20236;-67
2023/04/06 01:09:28;;;;;;;1999.90;999.90;;;;;;;-0.43;100.00;95517.53;5066768;28;20166;-67
2023/04/06 01:11:54;;;;;;;1999.90;999.90;;;;;;;-0.40;100.00;95519.53;5067218;28;20247;-68
2023/04/06 01:14:20;;;;;;;1999.90;999.90;;;;;;;-0.42;100.00;95521.75;5067523;28;20191;-69
2023/04/06 01:16:45;;;;;;;1999.90;999.90;;;;;;;-0.50;100.00;95519.94;5066463;28;20200;-67
2023/04/06 01:19:12;;;;;;;1999.90;999.90;;;;;;;-0.52;100.00;95519.47;5066663;28;20175;-67
2023/04/06 01:21:38;;;;;;;1999.90;999.90;;;;;;;-0.50;100.00;95526.06;5066627;28;20163;-67
2023/04/06 01:24:04;;;;;;;1999.90;999.90;;;;;;;-0.50;100.00;95510.00;5066338;28;20174;-68
2023/04/06 01:26:30;;;;;;;1999.90;999.90;;;;;;;-0.56;100.00;95505.97;5066424;28;20167;-67
2023/04/06 01:28:56;;;;;;;1999.90;999.90;;;;;;;-0.54;100.00;95521.72;5066367;28;20163;-68
2023/04/06 01:31:22;;;;;;;1999.90;999.90;;;;;;;-0.59;100.00;95511.97;5066187;28;20218;-67
2023/04/06 01:33:47;;;;;;;1999.90;999.90;;;;;;;-0.60;100.00;95513.09;5066260;28;20212;-68
2023/04/06 01:36:13;;;;;;;1999.90;999.90;;;;;;;-0.67;100.00;95504.81;5066557;28;20167;-68
2023/04/06 01:38:39;;;;;;;1999.90;999.90;;;;;;;-0.76;100.00;95506.00;5066493;28;20173;-67
2023/04/06 01:41:05;;;;;;;1999.90;999.90;;;;;;;-0.74;100.00;95509.13;5066678;28;20170;-67
2023/04/06 01:43:30;;;;;;;1999.90;999.90;;;;;;;-0.72;100.00;95506.91;5066623;28;20187;-67
2023/04/06 01:45:55;;;;;;;1999.90;999.90;;;;;;;-0.72;100.00;95496.19;5066121;28;20167;-67
2023/04/06 01:48:21;;;;;;;1999.90;999.90;;;;;;;-0.73;100.00;95500.00;5066084;28;20168;-67
2023/04/06 01:50:46;;;;;;;1999.90;999.90;;;;;;;-0.74;100.00;95498.41;5066841;28;20185;-68
2023/04/06 01:53:11;;;;;;;1999.90;999.90;;;;;;;-0.79;100.00;95504.75;5065810;28;20207;-67
2023/04/06 01:55:37;;;;;;;1999.90;999.90;;;;;;;-0.84;100.00;95501.50;5065894;28;20190;-67
2023/04/06 01:58:03;;;;;;;1999.90;999.90;;;;;;;-0.89;100.00;95499.78;5066447;28;20166;-67
2023/04/06 02:00:28;;;;;;;1999.90;999.90;;;;;;;-0.87;100.00;95504.84;5066160;28;20181;-67
2023/04/06 02:02:53;;;;;;;1999.90;999.90;;;;;;;-0.89;100.00;95505.16;5065782;28;20272;-67
2023/04/06 02:05:20;;;;;;;1999.90;999.90;;;;;;;-0.92;100.00;95502.34;5065729;28;20253;-67
2023/04/06 02:07:45;;;;;;;1999.90;999.90;;;;;;;-0.93;100.00;95500.78;5065652;28;20253;-68
2023/04/06 02:10:13;;;;;;;1999.90;999.90;;;;;;;-0.98;100.00;95501.75;5064823;28;20162;-67
2023/04/06 02:12:38;;;;;;;1999.90;999.90;;;;;;;-0.99;100.00;95494.03;5066237;28;20191;-67
2023/04/06 02:15:04;;;;;;;1999.90;999.90;;;;;;;-0.99;100.00;95502.06;5065781;28;20166;-67
2023/04/06 02:17:30;;;;;;;1999.90;999.90;;;;;;;-1.01;100.00;95498.94;5065488;28;20178;-66
2023/04/06 02:19:55;;;;;;;1999.90;999.90;;;;;;;-1.05;100.00;95493.44;5065474;28;20167;-67
2023/04/06 02:22:20;;;;;;;1999.90;999.90;;;;;;;-1.06;100.00;95496.47;5065381;28;20174;-67
2023/04/06 02:24:46;;;;;;;1999.90;999.90;;;;;;;-1.07;100.00;95497.56;5065495;28;20170;-67
2023/04/06 02:27:13;;;;;;;1999.90;999.90;;;;;;;-1.05;100.00;95501.47;5065381;28;20166;-67
2023/04/06 02:29:38;;;;;;;1999.90;999.90;;;;;;;-1.04;100.00;95488.88;5065172;28;20218;-67
2023/04/06 02:32:04;;;;;;;1999.90;999.90;;;;;;;-1.05;100.00;95500.72;5065126;28;20193;-67
2023/04/06 02:34:30;;;;;;;1999.90;999.90;;;;;;;-1.07;100.00;95492.22;5066043;28;20176;-67
2023/04/06 02:36:55;;;;;;;1999.90;999.90;;;;;;;-1.04;100.00;95483.53;5065186;28;20166;-67
2023/04/06 02:39:20;;;;;;;1999.90;999.90;;;;;;;-1.05;100.00;95498.03;5065204;28;20177;-67
2023/04/06 02:41:46;;;;;;;1999.90;999.90;;;;;;;-1.09;100.00;95494.44;5065083;28;20170;-67
2023/04/06 02:44:11;;;;;;;1999.90;999.90;;;;;;;-1.17;100.00;95490.72;5064987;28;20224;-68
2023/04/06 02:46:37;;;;;;;1999.90;999.90;;;;;;;-1.25;100.00;95478.16;5064982;28;20194;-67
2023/04/06 02:49:02;;;;;;;1999.90;999.90;;;;;;;-1.21;100.00;95489.00;5065701;28;20163;-68
2023/04/06 02:51:27;;;;;;;1999.90;999.90;;;;;;;-1.25;100.00;95488.09;5065254;28;20261;-67
2023/04/06 02:53:53;;;;;;;1999.90;999.90;;;;;;;-1.29;100.00;95487.97;5064736;28;20194;-68
2023/04/06 02:56:20;;;;;;;1999.90;999.90;;;;;;;-1.31;100.00;95484.06;5065160;28;20169;-67
2023/04/06 02:58:46;;;;;;;1999.90;999.90;;;;;;;-1.36;100.00;95481.56;5064708;28;20166;-68
2023/04/06 03:01:11;;;;;;;1999.90;999.90;;;;;;;-1.39;100.00;95487.56;5064941;28;20241;-68
2023/04/06 03:03:37;;;;;;;1999.90;999.90;;;;;;;-1.40;100.00;95486.00;5064541;28;20200;-67
2023/04/06 03:06:03;;;;;;;1999.90;999.90;;;;;;;-1.42;100.00;95482.88;5064596;28;20174;-67
2023/04/06 03:08:28;;;;;;;1999.90;999.90;;;;;;;-1.42;100.00;95477.50;5064569;28;20167;-67
2023/04/06 03:10:54;;;;;;;1999.90;999.90;;;;;;;-1.43;100.00;95486.63;5064496;28;20166;-67
2023/04/06 03:13:20;;;;;;;1999.90;999.90;;;;;;;-1.42;100.00;95490.91;5064290;28;20222;-67
2023/04/06 03:15:45;;;;;;;1999.90;999.90;;;;;;;-1.42;100.00;95483.63;5064387;28;20245;-68
2023/04/06 03:18:11;;;;;;;1999.90;999.90;;;;;;;-1.41;100.00;95489.78;5064300;28;20177;-67
2023/04/06 03:20:36;;;;;;;1999.90;999.90;;;;;;;-1.36;100.00;95484.22;5064283;28;20167;-68
2023/04/06 03:23:02;;;;;;;1999.90;999.90;;;;;;;-1.40;100.00;95491.34;5064984;28;20170;-69
2023/04/06 03:25:27;;;;;;;1999.90;999.90;;;;;;;-1.40;100.00;95491.34;5064289;28;20198;-67
2023/04/06 03:27:52;;;;;;;1999.90;999.90;;;;;;;-1.43;100.00;95489.31;5064942;28;20176;-67
2023/04/06 03:30:18;;;;;;;1999.90;999.90;;;;;;;-1.45;100.00;95484.28;5064056;28;20221;-67
2023/04/06 03:32:44;;;;;;;1999.90;999.90;;;;;;;-1.41;100.00;95489.78;5064055;28;20221;-66
2023/04/06 03:35:09;;;;;;;1999.90;999.90;;;;;;;-1.40;100.00;95481.44;5064561;28;20242;-67
2023/04/06 03:37:35;;;;;;;1999.90;999.90;;;;;;;-1.42;100.00;95482.88;5064496;28;20167;-66
2023/04/06 03:40:04;;;;;;;1999.90;999.90;;;;;;;-1.43;100.00;95483.94;5063947;28;20168;-67
2023/04/06 03:42:30;;;;;;;1999.90;999.90;;;;;;;-1.46;100.00;95481.94;5063974;28;20214;-69
2023/04/06 03:44:56;;;;;;;1999.90;999.90;;;;;;;-1.45;100.00;95480.84;5063994;28;20167;-67
2023/04/06 03:47:22;;;;;;;1999.90;999.90;;;;;;;-1.45;100.00;95483.50;5063800;28;20304;-66
2023/04/06 03:49:48;;;;;;;1999.90;999.90;;;;;;;-1.46;100.00;95485.41;5063848;28;20200;-67
2023/04/06 03:52:13;;;;;;;1999.90;999.90;;;;;;;-1.47;100.00;95491.06;5063686;28;20194;-66
2023/04/06 03:54:38;;;;;;;1999.90;999.90;;;;;;;-1.50;100.00;95497.06;5063645;28;20193;-67
2023/04/06 03:57:04;;;;;;;1999.90;999.90;;;;;;;-1.42;100.00;95496.25;5063699;28;20184;-68
2023/04/06 03:59:29;;;;;;;1999.90;999.90;;;;;;;-1.47;100.00;95496.44;5064336;28;20161;-69
2023/04/06 04:01:55;;;;;;;1999.90;999.90;;;;;;;-1.47;100.00;95491.06;5063985;28;20167;-68
2023/04/06 04:04:20;;;;;;;1999.90;999.90;;;;;;;-1.47;100.00;95501.78;5064154;28;20176;-68
2023/04/06 04:06:46;;;;;;;1999.90;999.90;;;;;;;-1.48;100.00;95503.69;5063738;28;20166;-68
2023/04/06 04:09:11;;;;;;;1999.90;999.90;;;;;;;-1.45;100.00;95496.91;5063635;28;20177;-69
2023/04/06 04:11:36;;;;;;;1999.90;999.90;;;;;;;-1.45;100.00;95504.94;5063639;28;20196;-68
2023/04/06 04:14:02;;;;;;;1999.90;999.90;;;;;;;-1.42;100.00;95504.28;5064071;28;20177;-69
2023/04/06 04:16:27;;;;;;;1999.90;999.90;;;;;;;-1.43;100.00;95508.84;5063603;28;20172;-67
2023/04/06 04:18:53;;;;;;;1999.90;999.90;;;;;;;-1.41;100.00;95505.84;5063619;28;20211;-67
2023/04/06 04:21:18;;;;;;;1999.90;999.90;;;;;;;-1.39;100.00;95514.31;5064019;28;20166;-67
2023/04/06 04:23:44;;;;;;;1999.90;999.90;;;;;;;-1.39;100.00;95503.63;5063557;28;20163;-67
2023/04/06 04:26:09;;;;;;;1999.90;999.90;;;;;;;-1.37;100.00;95506.75;5063746;28;20191;-67
2023/04/06 04:28:35;;;;;;;1999.90;999.90;;;;;;;-1.34;100.00;95514.16;5063567;28;20158;-67
2023/04/06 04:31:00;;;;;;;1999.90;999.90;;;;;;;-1.45;100.00;95510.28;5063237;28;20270;-69
2023/04/06 04:33:26;;;;;;;1999.90;999.90;;;;;;;-1.47;100.00;95512.50;5066087;28;20410;-67
2023/04/06 04:35:51;;;;;;;1999.90;999.90;;;;;;;-1.50;100.00;95518.47;5067943;28;20166;-67
2023/04/06 04:38:17;;;;;;;1999.90;999.90;;;;;;;-1.54;100.00;95506.84;5067389;28;20158;-67
2023/04/06 04:40:42;;;;;;;1999.90;999.90;;;;;;;-1.53;100.00;95513.81;5067334;28;20162;-67
2023/04/06 04:43:08;;;;;;;1999.90;999.90;;;;;;;-1.52;100.00;95510.00;5067204;28;20158;-68
2023/04/06 04:45:33;;;;;;;1999.90;999.90;;;;;;;-1.50;100.00;95507.78;5067332;28;20246;-66
2023/04/06 04:47:59;;;;;;;1999.90;999.90;;;;;;;-1.47;100.00;95512.50;5067353;28;20162;-66
2023/04/06 04:50:24;;;;;;;1999.90;999.90;;;;;;;-1.41;100.00;95505.84;5067215;28;20177;-66
2023/04/06 04:52:50;;;;;;;1999.90;999.90;;;;;;;-1.25;100.00;95512.19;5067461;28;20193;-68
2023/04/06 04:55:16;;;;;;;1999.90;999.90;;;;;;;-1.10;100.00;95506.25;5067006;28;20190;-67
2023/04/06 04:57:41;;;;;;;1999.90;999.90;;;;;;;-0.84;100.00;95512.22;5067007;28;20417;-67
2023/04/06 05:00:07;;;;;;;1999.90;999.90;;;;;;;-0.56;100.00;95510.53;5067644;28;20193;-68
2023/04/06 05:02:33;;;;;;;1999.90;999.90;;;;;;;-0.35;100.00;95516.66;5067625;28;20162;-67
2023/04/06 05:04:58;;;;;;;1999.90;999.90;;;;;;;-0.19;100.00;95514.88;5067482;28;20192;-66
2023/04/06 05:07:23;;;;;;;1999.90;999.90;;;;;;;0.20;100.00;95522.34;5067430;28;20179;-68
2023/04/06 05:09:49;;;;;;;1999.90;999.90;;;;;;;0.54;100.00;95523.84;5066819;28;20173;-67
2023/04/06 05:12:14;;;;;;;1999.90;999.90;;;;;;;0.76;100.00;95526.81;5066637;28;20189;-65
2023/04/06 05:14:40;;;;;;;1999.90;999.90;;;;;;;1.15;100.00;95526.09;5066734;28;20173;-69
2023/04/06 05:17:05;;;;;;;1999.90;999.90;;;;;;;1.47;100.00;95527.78;5066710;28;20161;-67
2023/04/06 05:19:31;;;;;;;1999.90;999.90;;;;;;;1.78;100.00;95521.72;5067418;28;20176;-67
2023/04/06 05:21:56;;;;;;;1999.90;999.90;;;;;;;2.18;100.00;95523.16;5066328;28;20165;-70
2023/04/06 05:24:22;;;;;;;1999.90;999.90;;;;;;;2.52;100.00;95519.78;5067262;28;20253;-67
2023/04/06 05:26:48;;;;;;;1999.90;999.90;;;;;;;2.90;100.00;95522.63;5066261;28;20166;-67
2023/04/06 05:29:14;;;;;;;1999.90;999.90;;;;;;;3.19;100.00;95521.31;5066366;28;20162;-66
2023/04/06 05:31:40;;;;;;;1999.90;999.90;;;;;;;3.54;100.00;95517.44;5066960;28;20221;-68
2023/04/06 05:34:05;;;;;;;1999.90;999.90;;;;;;;3.82;100.00;95519.91;5066860;28;20160;-69
2023/04/06 05:36:31;;;;;;;1999.90;999.90;;;;;;;4.20;100.00;95521.78;5066517;28;20161;-69
2023/04/06 05:38:58;;;;;;;1999.90;999.90;;;;;;;4.59;100.00;95523.25;5066762;28;20213;-66
2023/04/06 05:41:24;;;;;;;1999.90;999.90;;;;;;;4.79;100.00;95522.00;5066063;28;20172;-68
2023/04/06 05:43:49;;;;;;;1999.90;999.90;;;;;;;5.05;100.00;95522.00;5065564;28;20251;-69
2023/04/06 05:46:15;;;;;;;1999.90;999.90;;;;;;;5.28;100.00;95533.59;5066255;28;20232;-67
2023/04/06 05:48:40;;;;;;;1999.90;999.90;;;;;;;5.33;100.00;95527.84;5065880;28;20244;-68
2023/04/06 05:51:06;;;;;;;1999.90;999.90;;;;;;;5.23;100.00;95523.84;5065888;28;20163;-70
2023/04/06 05:53:31;;;;;;;1999.90;999.90;;;;;;;4.87;100.00;95531.78;5065767;28;20188;-68
2023/04/06 05:55:57;;;;;;;1999.90;999.90;;;;;;;5.10;100.00;95529.84;5066434;28;20165;-71
2023/04/06 05:58:22;;;;;;;1999.90;999.90;;;;;;;5.62;100.00;95527.06;5066232;28;20169;-69
2023/04/06 06:00:48;;;;;;;1999.90;999.90;;;;;;;6.04;100.00;95531.09;5065867;28;20199;-71
2023/04/06 06:03:15;;;;;;;1999.90;999.90;;;;;;;6.40;100.00;95534.94;5066224;28;20173;-69
2023/04/06 06:05:40;;;;;;;1999.90;999.90;;;;;;;6.63;100.00;95532.84;5066537;28;20248;-68
2023/04/06 06:08:06;;;;;;;1999.90;999.90;;;;;;;6.67;100.00;95528.25;5065801;28;20173;-69
2023/04/06 06:10:32;;;;;;;1999.90;999.90;;;;;;;6.52;100.00;95540.13;5065737;28;20463;-66
2023/04/06 06:12:57;;;;;;;1999.90;999.90;;;;;;;6.95;100.00;95533.13;5065605;28;20235;-69
2023/04/06 06:15:22;;;;;;;1999.90;999.90;;;;;;;7.41;100.00;95526.84;5065698;28;20219;-69
2023/04/06 06:17:48;;;;;;;1999.90;999.90;;;;;;;7.66;98.93;95527.75;5065585;28;20170;-69
2023/04/06 06:20:13;;;;;;;1999.90;999.90;;;;;;;8.08;95.05;95527.91;5066040;28;20168;-71
2023/04/06 06:22:40;;;;;;;1999.90;999.90;;;;;;;8.67;89.58;95519.13;5065908;28;20166;-68
2023/04/06 06:25:05;;;;;;;1999.90;999.90;;;;;;;9.01;85.76;95522.28;5065836;28;20170;-69
2023/04/06 06:27:30;;;;;;;1999.90;999.90;;;;;;;9.06;84.16;95522.66;5065841;28;20180;-70
2023/04/06 06:29:56;;;;;;;1999.90;999.90;;;;;;;9.58;82.20;95527.25;5065284;28;20222;-69
2023/04/06 06:32:21;;;;;;;1999.90;999.90;;;;;;;9.92;80.79;95522.84;5065586;28;20197;-68
2023/04/06 06:34:47;;;;;;;1999.90;999.90;;;;;;;11.09;74.54;95522.97;5065654;28;20192;-67
2023/04/06 06:37:12;;;;;;;1999.90;999.90;;;;;;;11.47;70.70;95524.63;5065904;28;20165;-67
2023/04/06 06:39:38;;;;;;;1999.90;999.90;;;;;;;11.84;66.65;95528.13;5065220;28;20170;-67
2023/04/06 06:42:03;;;;;;;1999.90;999.90;;;;;;;13.19;63.43;95525.97;5065860;28;20169;-68
2023/04/06 06:44:29;;;;;;;1999.90;999.90;;;;;;;13.15;60.25;95530.72;5065010;28;20194;-67
2023/04/06 06:46:54;;;;;;;1999.90;999.90;;;;;;;13.01;58.11;95536.44;5064855;28;20162;-69
2023/04/06 06:49:20;;;;;;;1999.90;999.90;;;;;;;13.03;56.70;95523.06;5065351;28;20204;-70
2023/04/06 06:51:46;;;;;;;1999.90;999.90;;;;;;;12.95;56.43;95535.31;5065330;28;20189;-70
2023/04/06 06:54:12;;;;;;;1999.90;999.90;;;;;;;13.03;56.91;95542.25;5064713;28;20190;-69
2023/04/06 06:56:38;;;;;;;1999.90;999.90;;;;;;;13.32;55.76;95537.13;5064358;28;20173;-68
2023/04/06 06:59:04;;;;;;;1999.90;999.90;;;;;;;13.53;53.52;95534.78;5064790;28;20245;-69
2023/04/06 07:01:32;;;;;;;1999.90;999.90;;;;;;;12.02;58.06;95541.66;5064761;28;20169;-69
2023/04/06 07:03:57;;;;;;;1999.90;999.90;;;;;;;11.58;62.30;95538.97;5064545;28;20249;-68
2023/04/06 07:06:23;;;;;;;1999.90;999.90;;;;;;;12.52;61.45;95542.56;5064584;28;20169;-66
2023/04/06 07:08:48;;;;;;;1999.90;999.90;;;;;;;13.15;57.41;95544.44;5065091;28;20166;-69
2023/04/06 07:11:13;;;;;;;1999.90;999.90;;;;;;;13.41;54.46;95549.09;5064849;28;20170;-69
2023/04/06 07:13:39;;;;;;;1999.90;999.90;;;;;;;13.94;52.22;95537.94;5064566;28;20189;-68
2023/04/06 07:16:04;;;;;;;1999.90;999.90;;;;;;;14.70;47.72;95540.34;5064104;28;20181;-70
2023/04/06 07:18:30;;;;;;;1999.90;999.90;;;;;;;14.87;48.67;95543.91;5064464;28;20176;-70
2023/04/06 07:20:55;;;;;;;1999.90;999.90;;;;;;;14.06;48.71;95540.06;5064344;28;20170;-68
2023/04/06 07:23:21;;;;;;;1999.90;999.90;;;;;;;13.11;50.39;95540.94;5064260;28;20204;-70
2023/04/06 07:25:46;;;;;;;1999.90;999.90;;;;;;;12.74;54.03;95543.84;5064904;28;20193;-71
2023/04/06 07:28:11;;;;;;;1999.90;999.90;;;;;;;12.15;55.38;95539.91;5064241;28;20174;-70
2023/04/06 07:30:38;;;;;;;1999.90;999.90;;;;;;;12.93;57.28;95543.19;5063962;28;20226;-69
2023/04/06 07:33:03;;;;;;;1999.90;999.90;;;;;;;12.03;56.23;95543.19;5063831;28;20206;-67
2023/04/06 07:35:30;;;;;;;1999.90;999.90;;;;;;;12.29;56.25;95540.53;5064204;28;20197;-68
2023/04/06 07:37:56;;;;;;;1999.90;999.90;;;;;;;13.39;54.20;95540.50;5063931;28;20180;-70
2023/04/06 07:40:22;;;;;;;1999.90;999.90;;;;;;;12.72;55.76;95546.22;5063820;28;20177;-71
2023/04/06 07:42:47;;;;;;;1999.90;999.90;;;;;;;12.72;55.65;95546.22;5064065;28;20244;-71
2023/04/06 07:45:13;;;;;;;1999.90;999.90;;;;;;;13.57;53.69;95548.44;5064404;28;20513;-68
2023/04/06 07:47:38;;;;;;;1999.90;999.90;;;;;;;14.10;50.29;95549.03;5063960;28;20181;-70
2023/04/06 07:50:05;;;;;;;1999.90;999.90;;;;;;;14.43;47.99;95553.50;5064094;28;20185;-71
2023/04/06 07:52:31;;;;;;;1999.90;999.90;;;;;;;15.42;45.04;95546.56;5063933;28;20209;-72
2023/04/06 07:54:57;;;;;;;1999.90;999.90;;;;;;;15.70;43.19;95552.16;5064493;28;20198;-72
2023/04/06 07:57:23;;;;;;;1999.90;999.90;;;;;;;15.53;42.03;95542.38;5063745;28;20178;-67
2023/04/06 07:59:48;;;;;;;1999.90;999.90;;;;;;;16.18;40.76;95543.78;5064018;28;20527;-68
2023/04/06 08:02:14;;;;;;;1999.90;999.90;;;;;;;15.74;39.48;95550.06;5064021;28;20380;-69
2023/04/06 08:04:39;;;;;;;1999.90;999.90;;;;;;;15.14;40.09;95545.25;5063751;28;20241;-68
2023/04/06 08:07:05;;;;;;;1999.90;999.90;;;;;;;15.64;39.68;95540.13;5063466;28;20178;-68
2023/04/06 08:09:31;;;;;;;1999.90;999.90;;;;;;;16.46;36.97;95538.72;5063891;28;20193;-70
2023/04/06 08:11:56;;;;;;;1999.90;999.90;;;;;;;17.19;36.70;95544.00;5064123;28;20210;-70
2023/04/06 08:14:22;;;;;;;1999.90;999.90;;;;;;;17.82;35.74;95547.50;5063656;28;20367;-70
2023/04/06 08:16:47;;;;;;;1999.90;999.90;;;;;;;17.49;35.72;95546.22;5063616;28;20177;-72
2023/04/06 08:19:13;;;;;;;1999.90;999.90;;;;;;;17.07;36.35;95539.25;5063571;28;20173;-68
2023/04/06 08:21:39;;;;;;;1999.90;999.90;;;;;;;15.73;36.64;95556.78;5063444;28;20213;-69
2023/04/06 08:24:05;;;;;;;1999.90;999.90;;;;;;;15.30;37.55;95556.25;5063345;28;20456;-68
2023/04/06 08:26:31;;;;;;;1999.90;999.90;;;;;;;15.02;36.89;95556.16;5063464;28;20205;-66
2023/04/06 08:28:56;;;;;;;1999.90;999.90;;;;;;;15.54;37.32;95549.41;5063630;28;20174;-66
2023/04/06 08:31:22;;;;;;;1999.90;999.90;;;;;;;15.12;37.10;95550.38;5063183;28;20247;-70
2023/04/06 08:33:47;;;;;;;1999.90;999.90;;;;;;;15.48;36.08;95556.63;5063327;28;20182;-69
2023/04/06 08:36:14;;;;;;;1999.90;999.90;;;;;;;16.99;34.72;95554.47;5063450;28;20198;-70
2023/04/06 08:38:42;;;;;;;1999.90;999.90;;;;;;;17.27;33.23;95548.09;5063100;28;20185;-71
2023/04/06 08:41:12;;;;;;;1999.90;999.90;;;;;;;17.21;32.38;95549.84;5063470;28;20174;-70
2023/04/06 08:43:46;;;;;;;1999.90;999.90;;;;;;;16.71;34.19;95552.59;5063844;28;20174;-71
2023/04/06 08:46:12;;;;;;;1999.90;999.90;;;;;;;16.40;34.30;95546.72;5063302;28;20177;-70
2023/04/06 08:48:42;;;;;;;1999.90;999.90;;;;;;;16.16;35.81;95550.94;5063011;28;20178;-72
2023/04/06 08:51:08;;;;;;;1999.90;999.90;;;;;;;17.42;34.25;95546.44;5063645;28;20178;-72
2023/04/06 08:53:34;;;;;;;1999.90;999.90;;;;;;;18.19;32.78;95549.34;5063179;28;20213;-71
2023/04/06 08:56:00;;;;;;;1999.90;999.90;;;;;;;17.46;33.57;95547.88;5063238;28;20178;-68
2023/04/06 08:58:30;;;;;;;1999.90;999.90;;;;;;;17.70;32.85;95548.28;5063741;28;20185;-67
2023/04/06 09:00:56;;;;;;;1999.90;999.90;;;;;;;17.54;31.93;95549.19;5063736;28;20208;-68
2023/04/06 09:03:23;;;;;;;1999.90;999.90;;;;;;;17.65;32.40;95543.31;5063244;28;20174;-70
2023/04/06 09:05:50;;;;;;;1999.90;999.90;;;;;;;17.81;31.15;95543.19;5063171;28;20291;-70
2023/04/06 09:08:15;;;;;;;1999.90;999.90;;;;;;;17.93;30.59;95542.38;5063041;28;20237;-71
2023/04/06 09:10:41;;;;;;;1999.90;999.90;;;;;;;18.07;30.21;95541.88;5063522;28;20185;-69
2023/04/06 09:13:07;;;;;;;1999.90;999.90;;;;;;;18.74;30.36;95534.72;5062942;28;20265;-70
2023/04/06 09:15:33;;;;;;;1999.90;999.90;;;;;;;18.76;30.41;95541.34;5063082;28;20174;-70
2023/04/06 09:17:58;;;;;;;1999.90;999.90;;;;;;;18.32;30.85;95536.25;5062976;28;20174;-70
2023/04/06 09:20:28;;;;;;;1999.90;999.90;;;;;;;19.21;30.42;95538.03;5066302;28;20178;-66
2023/04/06 09:22:55;;;;;;;1999.90;999.90;;;;;;;19.03;29.85;95537.97;5066677;28;20177;-70
2023/04/06 09:25:22;;;;;;;1999.90;999.90;;;;;;;18.98;29.79;95538.56;5066482;28;20170;-70
2023/04/06 09:27:49;;;;;;;1999.90;999.90;;;;;;;19.00;30.85;95536.09;5067082;28;20237;-70
2023/04/06 09:30:16;;;;;;;1999.90;999.90;;;;;;;18.91;30.91;95541.59;5066274;28;20214;-68
2023/04/06 09:32:54;;;;;;;1999.90;999.90;;;;;;;18.51;31.51;95537.97;5066441;28;20259;-69
2023/04/06 09:35:20;;;;;;;1999.90;999.90;;;;;;;18.75;30.85;95530.72;5066304;28;20165;-70
2023/04/06 09:37:47;;;;;;;1999.90;999.90;;;;;;;18.09;30.88;95533.91;5067222;28;20170;-70
2023/04/06 09:40:13;;;;;;;1999.90;999.90;;;;;;;19.58;29.53;95538.97;5065853;28;20177;-71
2023/04/06 09:42:42;;;;;;;1999.90;999.90;;;;;;;18.80;31.74;95533.69;5066184;28;20243;-71
2023/04/06 09:45:08;;;;;;;1999.90;999.90;;;;;;;19.19;30.75;95526.63;5066681;28;20188;-71
2023/04/06 09:47:36;;;;;;;1999.90;999.90;;;;;;;19.13;30.67;95528.47;5066015;28;20180;-71
2023/04/06 09:50:02;;;;;;;1999.90;999.90;;;;;;;18.49;30.81;95526.56;5066464;28;20201;-66
2023/04/06 09:52:49;;;;;;;1999.90;999.90;;;;;;;19.37;30.02;95521.97;5065999;28;20197;-67
2023/04/06 09:55:24;;;;;;;1999.90;999.90;;;;;;;19.96;30.31;95511.63;5066115;28;20190;-71
2023/04/06 09:57:57;;;;;;;1999.90;999.90;;;;;;;20.36;28.91;95513.03;5066769;28;20158;-66
2023/04/06 10:00:25;;;;;;;1999.90;999.90;;;;;;;19.97;29.90;95516.72;5065588;28;20178;-69
2023/04/06 10:02:56;;;;;;;1999.90;999.90;;;;;;;18.50;31.13;95506.75;5066368;28;20173;-67
2023/04/06 10:05:40;;;;;;;1999.90;999.90;;;;;;;17.91;31.85;95506.09;5066210;28;20182;-66
2023/04/06 10:08:10;;;;;;;1999.90;999.90;;;;;;;18.53;31.44;95513.38;5066226;28;20166;-67
2023/04/06 10:10:36;;;;;;;1999.90;999.90;;;;;;;17.63;31.62;95507.09;5065529;28;20170;-69
2023/04/06 10:13:03;;;;;;;1999.90;999.90;;;;;;;17.95;30.08;95512.31;5065592;28;20205;-68
2023/04/06 10:15:30;;;;;;;1999.90;999.90;;;;;;;17.69;31.48;95511.59;5065430;28;20174;-68
2023/04/06 10:17:56;;;;;;;1999.90;999.90;;;;;;;17.27;31.22;95513.00;5065548;28;20176;-69
2023/04/06 10:20:47;;;;;;;1999.90;999.90;;;;;;;16.67;33.05;95499.50;5065421;28;20170;-67
2023/04/06 10:23:33;;;;;;;1999.90;999.90;;;;;;;17.01;32.69;95500.38;5065816;28;20208;-66
2023/04/06 10:26:00;;;;;;;1999.90;999.90;;;;;;;16.50;32.33;95498.78;5065968;28;20173;-67
2023/04/06 10:28:32;;;;;;;1999.90;999.90;;;;;;;18.45;32.64;95498.25;5065850;28;20241;-69
2023/04/06 10:31:04;;;;;;;1999.90;999.90;;;;;;;18.53;31.30;95494.00;5064086;28;20227;-68
2023/04/06 10:33:30;;;;;;;1999.90;999.90;;;;;;;17.39;32.05;95500.38;5065547;28;20222;-67
2023/04/06 10:35:55;;;;;;;1999.90;999.90;;;;;;;16.25;33.24;95496.72;5065207;28;20170;-67
2023/04/06 10:38:22;;;;;;;1999.90;999.90;;;;;;;16.43;33.83;95491.50;5065095;28;20169;-68
2023/04/06 10:40:48;;;;;;;1999.90;999.90;;;;;;;16.34;34.45;95487.81;5065210;28;20180;-67
2023/04/06 10:43:19;;;;;;;1999.90;999.90;;;;;;;16.29;34.05;95483.63;5065453;28;20227;-67
2023/04/06 10:45:53;;;;;;;1999.90;999.90;;;;;;;16.25;35.11;95493.97;5065502;28;20181;-68